sensor_id;sensor_type;location;lat;lon;timestamp;P1;durP1;ratioP1;P2;durP2;ratioP2
80732;SDS011;70130;44.534;18.678;2024-01-15T00:00:48;291.67;;;119.00;;
80732;SDS011;70130;44.534;18.678;2024-01-15T00:03:17;254.07;;;110.13;;
80732;SDS011;70130;44.534;18.678;2024-01-15T00:05:42;221.77;;;100.70;;
80732;SDS011;70130;44.534;18.678;2024-01-15T00:08:18;222.10;;;95.10;;
80732;SDS011;70130;44.534;18.678;2024-01-15T00:10:46;207.10;;;91.33;;
80732;SDS011;70130;44.534;18.678;2024-01-15T00:13:12;253.80;;;108.33;;
80732;SDS011;70130;44.534;18.678;2024-01-15T00:15:53;267.83;;;115.00;;
80732;SDS011;70130;44.534;18.678;2024-01-15T00:18:18;310.30;;;128.87;;
80732;SDS011;70130;44.534;18.678;2024-01-15T00:20:47;267.57;;;117.00;;
80732;SDS011;70130;44.534;18.678;2024-01-15T00:23:27;252.13;;;110.80;;
80732;SDS011;70130;44.534;18.678;2024-01-15T00:25:53;223.30;;;99.43;;
80732;SDS011;70130;44.534;18.678;2024-01-15T00:28:21;254.87;;;106.60;;
80732;SDS011;70130;44.534;18.678;2024-01-15T00:30:47;271.53;;;118.57;;
80732;SDS011;70130;44.534;18.678;2024-01-15T00:33:15;274.27;;;117.80;;
80732;SDS011;70130;44.534;18.678;2024-01-15T00:35:41;254.10;;;111.90;;
80732;SDS011;70130;44.534;18.678;2024-01-15T00:38:07;235.97;;;104.20;;
80732;SDS011;70130;44.534;18.678;2024-01-15T00:40:44;222.97;;;102.50;;
80732;SDS011;70130;44.534;18.678;2024-01-15T00:43:16;214.40;;;95.90;;
80732;SDS011;70130;44.534;18.678;2024-01-15T00:45:46;206.33;;;92.63;;
80732;SDS011;70130;44.534;18.678;2024-01-15T00:48:12;193.33;;;84.40;;
80732;SDS011;70130;44.534;18.678;2024-01-15T00:50:38;171.20;;;78.90;;
80732;SDS011;70130;44.534;18.678;2024-01-15T00:53:03;168.23;;;77.43;;
80732;SDS011;70130;44.534;18.678;2024-01-15T00:58:41;179.40;;;81.13;;
80732;SDS011;70130;44.534;18.678;2024-01-15T01:01:07;187.30;;;87.37;;
80732;SDS011;70130;44.534;18.678;2024-01-15T01:03:32;212.80;;;89.63;;
80732;SDS011;70130;44.534;18.678;2024-01-15T01:06:16;187.77;;;86.60;;
80732;SDS011;70130;44.534;18.678;2024-01-15T01:08:44;171.90;;;78.77;;
80732;SDS011;70130;44.534;18.678;2024-01-15T01:11:13;161.20;;;77.00;;
80732;SDS011;70130;44.534;18.678;2024-01-15T01:13:39;151.50;;;69.73;;
80732;SDS011;70130;44.534;18.678;2024-01-15T01:16:05;173.80;;;73.87;;
80732;SDS011;70130;44.534;18.678;2024-01-15T01:18:31;171.00;;;79.00;;
80732;SDS011;70130;44.534;18.678;2024-01-15T01:20:56;162.87;;;74.70;;
80732;SDS011;70130;44.534;18.678;2024-01-15T01:23:28;159.47;;;75.27;;
80732;SDS011;70130;44.534;18.678;2024-01-15T01:25:59;147.60;;;65.73;;
80732;SDS011;70130;44.534;18.678;2024-01-15T01:28:31;135.50;;;63.57;;
80732;SDS011;70130;44.534;18.678;2024-01-15T01:31:08;139.43;;;59.60;;
80732;SDS011;70130;44.534;18.678;2024-01-15T01:33:40;130.67;;;61.10;;
80732;SDS011;70130;44.534;18.678;2024-01-15T01:36:18;136.60;;;61.90;;
80732;SDS011;70130;44.534;18.678;2024-01-15T01:38:44;147.80;;;64.83;;
80732;SDS011;70130;44.534;18.678;2024-01-15T01:41:13;138.90;;;65.43;;
80732;SDS011;70130;44.534;18.678;2024-01-15T01:43:38;132.50;;;58.03;;
80732;SDS011;70130;44.534;18.678;2024-01-15T01:46:04;144.40;;;67.20;;
80732;SDS011;70130;44.534;18.678;2024-01-15T01:48:48;155.83;;;63.27;;
80732;SDS011;70130;44.534;18.678;2024-01-15T01:51:26;161.77;;;70.80;;
80732;SDS011;70130;44.534;18.678;2024-01-15T01:54:10;153.77;;;71.20;;
80732;SDS011;70130;44.534;18.678;2024-01-15T01:56:48;159.23;;;69.27;;
80732;SDS011;70130;44.534;18.678;2024-01-15T01:59:18;148.97;;;65.77;;
80732;SDS011;70130;44.534;18.678;2024-01-15T02:01:44;151.73;;;70.33;;
80732;SDS011;70130;44.534;18.678;2024-01-15T02:04:10;178.07;;;75.37;;
80732;SDS011;70130;44.534;18.678;2024-01-15T02:06:39;170.73;;;73.77;;
80732;SDS011;70130;44.534;18.678;2024-01-15T02:09:05;174.93;;;76.47;;
80732;SDS011;70130;44.534;18.678;2024-01-15T02:11:31;185.73;;;81.37;;
80732;SDS011;70130;44.534;18.678;2024-01-15T02:14:09;168.70;;;78.30;;
80732;SDS011;70130;44.534;18.678;2024-01-15T02:16:38;162.83;;;74.07;;
80732;SDS011;70130;44.534;18.678;2024-01-15T02:19:04;169.13;;;73.83;;
80732;SDS011;70130;44.534;18.678;2024-01-15T02:21:30;153.57;;;67.93;;
80732;SDS011;70130;44.534;18.678;2024-01-15T02:24:00;154.90;;;66.47;;
80732;SDS011;70130;44.534;18.678;2024-01-15T02:26:31;149.03;;;66.10;;
80732;SDS011;70130;44.534;18.678;2024-01-15T02:29:01;129.27;;;55.13;;
80732;SDS011;70130;44.534;18.678;2024-01-15T02:31:26;136.60;;;58.43;;
80732;SDS011;70130;44.534;18.678;2024-01-15T02:33:52;125.53;;;54.13;;
80732;SDS011;70130;44.534;18.678;2024-01-15T02:36:18;107.97;;;47.50;;
80732;SDS011;70130;44.534;18.678;2024-01-15T02:38:47;108.23;;;49.87;;
80732;SDS011;70130;44.534;18.678;2024-01-15T02:41:12;103.67;;;44.73;;
80732;SDS011;70130;44.534;18.678;2024-01-15T02:46:51;115.47;;;46.43;;
80732;SDS011;70130;44.534;18.678;2024-01-15T02:49:16;124.97;;;52.20;;
80732;SDS011;70130;44.534;18.678;2024-01-15T02:51:48;109.70;;;50.57;;
80732;SDS011;70130;44.534;18.678;2024-01-15T02:54:32;115.47;;;51.70;;
80732;SDS011;70130;44.534;18.678;2024-01-15T02:57:00;119.97;;;53.23;;
80732;SDS011;70130;44.534;18.678;2024-01-15T02:59:26;127.00;;;59.37;;
80732;SDS011;70130;44.534;18.678;2024-01-15T03:01:51;140.17;;;63.57;;
80732;SDS011;70130;44.534;18.678;2024-01-15T03:04:26;131.43;;;57.97;;
80732;SDS011;70130;44.534;18.678;2024-01-15T03:06:51;126.20;;;55.53;;
80732;SDS011;70130;44.534;18.678;2024-01-15T03:09:23;122.10;;;52.40;;
80732;SDS011;70130;44.534;18.678;2024-01-15T03:12:00;107.93;;;47.00;;
80732;SDS011;70130;44.534;18.678;2024-01-15T03:14:44;95.00;;;42.83;;
80732;SDS011;70130;44.534;18.678;2024-01-15T03:17:13;97.97;;;41.17;;
80732;SDS011;70130;44.534;18.678;2024-01-15T03:19:38;92.37;;;41.33;;
80732;SDS011;70130;44.534;18.678;2024-01-15T03:22:16;92.23;;;39.90;;
80732;SDS011;70130;44.534;18.678;2024-01-15T03:24:46;84.57;;;35.60;;
80732;SDS011;70130;44.534;18.678;2024-01-15T03:27:11;85.37;;;37.97;;
80732;SDS011;70130;44.534;18.678;2024-01-15T03:29:55;85.70;;;36.67;;
80732;SDS011;70130;44.534;18.678;2024-01-15T03:32:23;80.50;;;35.47;;
80732;SDS011;70130;44.534;18.678;2024-01-15T03:34:49;82.53;;;35.50;;
80732;SDS011;70130;44.534;18.678;2024-01-15T03:37:26;77.77;;;35.77;;
80732;SDS011;70130;44.534;18.678;2024-01-15T03:39:55;78.73;;;35.87;;
80732;SDS011;70130;44.534;18.678;2024-01-15T03:42:20;70.33;;;33.33;;
80732;SDS011;70130;44.534;18.678;2024-01-15T03:44:46;73.73;;;34.03;;
80732;SDS011;70130;44.534;18.678;2024-01-15T03:47:14;73.43;;;32.33;;
80732;SDS011;70130;44.534;18.678;2024-01-15T03:49:40;84.40;;;35.17;;
80732;SDS011;70130;44.534;18.678;2024-01-15T03:52:24;87.77;;;35.70;;
80732;SDS011;70130;44.534;18.678;2024-01-15T03:54:52;67.47;;;31.67;;
80732;SDS011;70130;44.534;18.678;2024-01-15T03:57:24;81.60;;;32.87;;
80732;SDS011;70130;44.534;18.678;2024-01-15T03:59:53;83.53;;;36.63;;
80732;SDS011;70130;44.534;18.678;2024-01-15T04:02:18;90.20;;;37.93;;
80732;SDS011;70130;44.534;18.678;2024-01-15T04:04:56;84.17;;;36.03;;
80732;SDS011;70130;44.534;18.678;2024-01-15T04:07:25;66.67;;;29.90;;
80732;SDS011;70130;44.534;18.678;2024-01-15T04:09:50;66.23;;;28.50;;
80732;SDS011;70130;44.534;18.678;2024-01-15T04:12:16;61.07;;;28.63;;
80732;SDS011;70130;44.534;18.678;2024-01-15T04:14:44;63.33;;;27.93;;
80732;SDS011;70130;44.534;18.678;2024-01-15T04:17:10;56.90;;;24.97;;
80732;SDS011;70130;44.534;18.678;2024-01-15T04:19:38;60.77;;;28.23;;
80732;SDS011;70130;44.534;18.678;2024-01-15T04:22:16;62.40;;;29.60;;
80732;SDS011;70130;44.534;18.678;2024-01-15T04:24:45;69.50;;;30.40;;
80732;SDS011;70130;44.534;18.678;2024-01-15T04:27:10;68.63;;;30.10;;
80732;SDS011;70130;44.534;18.678;2024-01-15T04:29:48;68.97;;;31.00;;
80732;SDS011;70130;44.534;18.678;2024-01-15T04:32:16;73.40;;;33.33;;
80732;SDS011;70130;44.534;18.678;2024-01-15T04:34:42;81.27;;;34.93;;
80732;SDS011;70130;44.534;18.678;2024-01-15T04:37:19;90.13;;;37.67;;
80732;SDS011;70130;44.534;18.678;2024-01-15T04:39:48;74.50;;;33.83;;
80732;SDS011;70130;44.534;18.678;2024-01-15T04:42:13;76.47;;;32.70;;
80732;SDS011;70130;44.534;18.678;2024-01-15T04:44:39;70.57;;;32.87;;
80732;SDS011;70130;44.534;18.678;2024-01-15T04:50:29;60.90;;;27.23;;
80732;SDS011;70130;44.534;18.678;2024-01-15T04:52:55;69.03;;;29.83;;
80732;SDS011;70130;44.534;18.678;2024-01-15T04:55:20;71.13;;;31.93;;
80732;SDS011;70130;44.534;18.678;2024-01-15T04:58:04;70.53;;;31.90;;
80732;SDS011;70130;44.534;18.678;2024-01-15T05:00:36;74.20;;;31.37;;
80732;SDS011;70130;44.534;18.678;2024-01-15T05:03:07;72.60;;;31.33;;
80732;SDS011;70130;44.534;18.678;2024-01-15T05:05:36;74.73;;;31.90;;
80732;SDS011;70130;44.534;18.678;2024-01-15T05:08:02;71.63;;;30.37;;
80732;SDS011;70130;44.534;18.678;2024-01-15T05:10:27;67.43;;;31.40;;
80732;SDS011;70130;44.534;18.678;2024-01-15T05:12:53;73.87;;;33.80;;
80732;SDS011;70130;44.534;18.678;2024-01-15T05:15:24;80.47;;;35.40;;
80732;SDS011;70130;44.534;18.678;2024-01-15T05:18:02;75.90;;;35.47;;
80732;SDS011;70130;44.534;18.678;2024-01-15T05:20:27;90.43;;;38.97;;
80732;SDS011;70130;44.534;18.678;2024-01-15T05:25:53;97.07;;;41.07;;
80732;SDS011;70130;44.534;18.678;2024-01-15T05:28:18;82.90;;;39.63;;
80732;SDS011;70130;44.534;18.678;2024-01-15T05:30:44;105.53;;;46.33;;
80732;SDS011;70130;44.534;18.678;2024-01-15T05:33:09;91.87;;;42.13;;
80732;SDS011;70130;44.534;18.678;2024-01-15T05:35:35;88.00;;;42.30;;
80732;SDS011;70130;44.534;18.678;2024-01-15T05:38:00;91.50;;;42.27;;
80732;SDS011;70130;44.534;18.678;2024-01-15T05:43:19;78.75;;;36.20;;
80732;SDS011;70130;44.534;18.678;2024-01-15T05:45:45;78.77;;;38.00;;
80732;SDS011;70130;44.534;18.678;2024-01-15T05:48:11;79.27;;;39.23;;
80732;SDS011;70130;44.534;18.678;2024-01-15T05:50:49;80.63;;;38.57;;
80732;SDS011;70130;44.534;18.678;2024-01-15T05:53:27;79.70;;;35.07;;
80732;SDS011;70130;44.534;18.678;2024-01-15T06:02:22;91.60;;;41.23;;
80732;SDS011;70130;44.534;18.678;2024-01-15T06:04:48;102.03;;;42.87;;
80732;SDS011;70130;44.534;18.678;2024-01-15T06:07:13;96.90;;;44.00;;
80732;SDS011;70130;44.534;18.678;2024-01-15T06:09:57;86.43;;;39.53;;
80732;SDS011;70130;44.534;18.678;2024-01-15T06:12:35;74.37;;;35.90;;
80732;SDS011;70130;44.534;18.678;2024-01-15T06:15:06;86.57;;;38.47;;
80732;SDS011;70130;44.534;18.678;2024-01-15T06:17:38;88.40;;;40.83;;
80732;SDS011;70130;44.534;18.678;2024-01-15T06:20:04;85.77;;;39.53;;
80732;SDS011;70130;44.534;18.678;2024-01-15T06:22:30;113.13;;;46.90;;
80732;SDS011;70130;44.534;18.678;2024-01-15T06:24:57;128.70;;;52.80;;
80732;SDS011;70130;44.534;18.678;2024-01-15T06:27:23;122.63;;;55.90;;
80732;SDS011;70130;44.534;18.678;2024-01-15T06:29:48;116.43;;;51.67;;
80732;SDS011;70130;44.534;18.678;2024-01-15T06:32:15;115.67;;;53.17;;
80732;SDS011;70130;44.534;18.678;2024-01-15T06:34:41;118.03;;;52.47;;
80732;SDS011;70130;44.534;18.678;2024-01-15T06:37:06;123.07;;;55.13;;
80732;SDS011;70130;44.534;18.678;2024-01-15T06:39:32;116.23;;;56.63;;
80732;SDS011;70130;44.534;18.678;2024-01-15T06:41:57;123.30;;;57.23;;
80732;SDS011;70130;44.534;18.678;2024-01-15T06:44:23;118.47;;;52.90;;
80732;SDS011;70130;44.534;18.678;2024-01-15T06:46:49;145.17;;;60.63;;
80732;SDS011;70130;44.534;18.678;2024-01-15T06:49:15;135.03;;;62.33;;
80732;SDS011;70130;44.534;18.678;2024-01-15T06:51:41;153.10;;;66.83;;
80732;SDS011;70130;44.534;18.678;2024-01-15T06:54:07;154.50;;;67.73;;
80732;SDS011;70130;44.534;18.678;2024-01-15T06:56:33;127.97;;;60.00;;
80732;SDS011;70130;44.534;18.678;2024-01-15T06:58:58;168.50;;;72.90;;
80732;SDS011;70130;44.534;18.678;2024-01-15T07:01:24;174.17;;;75.33;;
80732;SDS011;70130;44.534;18.678;2024-01-15T07:03:50;178.67;;;80.27;;
80732;SDS011;70130;44.534;18.678;2024-01-15T07:06:15;173.33;;;82.13;;
80732;SDS011;70130;44.534;18.678;2024-01-15T07:08:41;208.80;;;87.80;;
80732;SDS011;70130;44.534;18.678;2024-01-15T07:11:07;203.33;;;90.47;;
80732;SDS011;70130;44.534;18.678;2024-01-15T07:13:33;217.60;;;93.63;;
80732;SDS011;70130;44.534;18.678;2024-01-15T07:16:01;217.70;;;97.43;;
80732;SDS011;70130;44.534;18.678;2024-01-15T07:18:26;204.93;;;92.93;;
80732;SDS011;70130;44.534;18.678;2024-01-15T07:20:52;182.27;;;80.87;;
80732;SDS011;70130;44.534;18.678;2024-01-15T07:23:17;178.00;;;80.47;;
80732;SDS011;70130;44.534;18.678;2024-01-15T07:25:43;201.13;;;89.00;;
80732;SDS011;70130;44.534;18.678;2024-01-15T07:28:09;194.37;;;90.43;;
80732;SDS011;70130;44.534;18.678;2024-01-15T07:30:35;205.97;;;95.60;;
80732;SDS011;70130;44.534;18.678;2024-01-15T07:33:00;331.00;;;121.17;;
80732;SDS011;70130;44.534;18.678;2024-01-15T07:35:26;376.10;;;138.20;;
80732;SDS011;70130;44.534;18.678;2024-01-15T07:37:52;362.77;;;134.37;;
80732;SDS011;70130;44.534;18.678;2024-01-15T07:40:17;338.50;;;131.37;;
80732;SDS011;70130;44.534;18.678;2024-01-15T07:42:43;296.73;;;126.03;;
80732;SDS011;70130;44.534;18.678;2024-01-15T07:45:09;229.07;;;106.57;;
80732;SDS011;70130;44.534;18.678;2024-01-15T07:47:35;211.13;;;97.53;;
80732;SDS011;70130;44.534;18.678;2024-01-15T07:50:01;195.70;;;92.70;;
80732;SDS011;70130;44.534;18.678;2024-01-15T07:52:27;192.03;;;92.00;;
80732;SDS011;70130;44.534;18.678;2024-01-15T07:54:52;207.53;;;96.30;;
80732;SDS011;70130;44.534;18.678;2024-01-15T07:57:18;189.60;;;91.70;;
80732;SDS011;70130;44.534;18.678;2024-01-15T07:59:43;194.37;;;89.70;;
80732;SDS011;70130;44.534;18.678;2024-01-15T08:02:09;178.23;;;85.17;;
80732;SDS011;70130;44.534;18.678;2024-01-15T08:04:36;175.20;;;86.33;;
80732;SDS011;70130;44.534;18.678;2024-01-15T08:07:03;211.27;;;99.53;;
80732;SDS011;70130;44.534;18.678;2024-01-15T08:09:29;252.67;;;117.30;;
80732;SDS011;70130;44.534;18.678;2024-01-15T08:11:54;254.77;;;119.57;;
80732;SDS011;70130;44.534;18.678;2024-01-15T08:14:20;267.53;;;125.87;;
80732;SDS011;70130;44.534;18.678;2024-01-15T08:16:46;262.20;;;124.53;;
80732;SDS011;70130;44.534;18.678;2024-01-15T08:19:11;275.67;;;124.37;;
80732;SDS011;70130;44.534;18.678;2024-01-15T08:21:37;244.20;;;111.90;;
80732;SDS011;70130;44.534;18.678;2024-01-15T08:24:03;206.30;;;99.57;;
80732;SDS011;70130;44.534;18.678;2024-01-15T08:26:30;219.03;;;97.27;;
80732;SDS011;70130;44.534;18.678;2024-01-15T08:28:57;213.13;;;100.07;;
80732;SDS011;70130;44.534;18.678;2024-01-15T08:31:23;192.23;;;94.13;;
80732;SDS011;70130;44.534;18.678;2024-01-15T08:33:49;192.00;;;97.37;;
80732;SDS011;70130;44.534;18.678;2024-01-15T08:36:15;195.43;;;94.63;;
80732;SDS011;70130;44.534;18.678;2024-01-15T08:38:40;204.27;;;92.70;;
80732;SDS011;70130;44.534;18.678;2024-01-15T08:41:06;208.37;;;98.30;;
80732;SDS011;70130;44.534;18.678;2024-01-15T08:43:33;218.33;;;99.60;;
80732;SDS011;70130;44.534;18.678;2024-01-15T08:45:59;204.30;;;95.53;;
80732;SDS011;70130;44.534;18.678;2024-01-15T08:48:25;203.60;;;98.03;;
80732;SDS011;70130;44.534;18.678;2024-01-15T08:50:54;241.57;;;105.00;;
80732;SDS011;70130;44.534;18.678;2024-01-15T08:53:20;223.30;;;98.23;;
80732;SDS011;70130;44.534;18.678;2024-01-15T08:55:46;214.80;;;97.87;;
80732;SDS011;70130;44.534;18.678;2024-01-15T08:58:14;215.40;;;95.97;;
80732;SDS011;70130;44.534;18.678;2024-01-15T09:00:41;202.20;;;98.23;;
80732;SDS011;70130;44.534;18.678;2024-01-15T09:03:06;227.23;;;110.90;;
80732;SDS011;70130;44.534;18.678;2024-01-15T09:05:34;235.53;;;115.47;;
80732;SDS011;70130;44.534;18.678;2024-01-15T09:08:03;226.17;;;110.60;;
80732;SDS011;70130;44.534;18.678;2024-01-15T09:10:29;217.50;;;105.87;;
80732;SDS011;70130;44.534;18.678;2024-01-15T09:12:54;209.57;;;101.83;;
80732;SDS011;70130;44.534;18.678;2024-01-15T09:15:20;222.30;;;110.40;;
80732;SDS011;70130;44.534;18.678;2024-01-15T09:17:45;245.27;;;118.07;;
80732;SDS011;70130;44.534;18.678;2024-01-15T09:20:11;229.97;;;117.30;;
80732;SDS011;70130;44.534;18.678;2024-01-15T09:22:40;249.47;;;120.57;;
80732;SDS011;70130;44.534;18.678;2024-01-15T09:25:07;232.07;;;115.00;;
80732;SDS011;70130;44.534;18.678;2024-01-15T09:27:37;207.38;;;105.82;;
80732;SDS011;70130;44.534;18.678;2024-01-15T09:30:03;231.77;;;114.00;;
80732;SDS011;70130;44.534;18.678;2024-01-15T09:32:30;234.27;;;113.93;;
80732;SDS011;70130;44.534;18.678;2024-01-15T09:34:55;230.00;;;115.83;;
80732;SDS011;70130;44.534;18.678;2024-01-15T09:37:21;244.87;;;124.53;;
80732;SDS011;70130;44.534;18.678;2024-01-15T09:39:47;289.63;;;139.70;;
80732;SDS011;70130;44.534;18.678;2024-01-15T09:42:13;285.87;;;141.60;;
80732;SDS011;70130;44.534;18.678;2024-01-15T09:44:40;296.37;;;147.70;;
80732;SDS011;70130;44.534;18.678;2024-01-15T09:47:06;312.57;;;149.97;;
80732;SDS011;70130;44.534;18.678;2024-01-15T09:49:33;270.07;;;141.67;;
80732;SDS011;70130;44.534;18.678;2024-01-15T09:51:58;248.20;;;131.57;;
80732;SDS011;70130;44.534;18.678;2024-01-15T09:54:25;204.70;;;106.43;;
80732;SDS011;70130;44.534;18.678;2024-01-15T09:56:52;207.33;;;111.30;;
80732;SDS011;70130;44.534;18.678;2024-01-15T09:59:18;197.97;;;108.63;;
80732;SDS011;70130;44.534;18.678;2024-01-15T10:01:45;203.47;;;108.17;;
80732;SDS011;70130;44.534;18.678;2024-01-15T10:04:14;190.40;;;103.17;;
80732;SDS011;70130;44.534;18.678;2024-01-15T10:06:44;193.30;;;105.67;;
80732;SDS011;70130;44.534;18.678;2024-01-15T10:09:14;223.57;;;115.65;;
80732;SDS011;70130;44.534;18.678;2024-01-15T10:11:43;226.90;;;120.27;;
80732;SDS011;70130;44.534;18.678;2024-01-15T10:14:10;229.10;;;116.37;;
80732;SDS011;70130;44.534;18.678;2024-01-15T10:16:39;219.20;;;112.87;;
80732;SDS011;70130;44.534;18.678;2024-01-15T10:19:06;231.33;;;117.90;;
80732;SDS011;70130;44.534;18.678;2024-01-15T10:21:33;223.33;;;117.13;;
80732;SDS011;70130;44.534;18.678;2024-01-15T10:24:00;232.20;;;117.83;;
80732;SDS011;70130;44.534;18.678;2024-01-15T10:26:26;233.37;;;122.00;;
80732;SDS011;70130;44.534;18.678;2024-01-15T10:28:52;265.97;;;127.53;;
80732;SDS011;70130;44.534;18.678;2024-01-15T10:31:18;256.80;;;129.63;;
80732;SDS011;70130;44.534;18.678;2024-01-15T10:33:49;254.80;;;130.27;;
80732;SDS011;70130;44.534;18.678;2024-01-15T10:36:17;262.23;;;131.10;;
80732;SDS011;70130;44.534;18.678;2024-01-15T10:38:43;267.80;;;134.73;;
80732;SDS011;70130;44.534;18.678;2024-01-15T10:41:10;267.30;;;135.27;;
80732;SDS011;70130;44.534;18.678;2024-01-15T10:43:36;271.03;;;135.00;;
80732;SDS011;70130;44.534;18.678;2024-01-15T10:46:02;287.17;;;147.33;;
80732;SDS011;70130;44.534;18.678;2024-01-15T10:48:28;287.70;;;143.97;;
80732;SDS011;70130;44.534;18.678;2024-01-15T10:50:56;321.67;;;154.37;;
80732;SDS011;70130;44.534;18.678;2024-01-15T10:53:23;309.13;;;152.13;;
80732;SDS011;70130;44.534;18.678;2024-01-15T10:55:50;345.13;;;168.60;;
80732;SDS011;70130;44.534;18.678;2024-01-15T10:58:19;350.33;;;177.37;;
80732;SDS011;70130;44.534;18.678;2024-01-15T11:00:45;373.83;;;188.07;;
80732;SDS011;70130;44.534;18.678;2024-01-15T11:03:12;380.37;;;192.80;;
80732;SDS011;70130;44.534;18.678;2024-01-15T11:05:39;365.57;;;187.33;;
80732;SDS011;70130;44.534;18.678;2024-01-15T11:08:06;381.87;;;192.47;;
80732;SDS011;70130;44.534;18.678;2024-01-15T11:10:39;392.00;;;205.47;;
80732;SDS011;70130;44.534;18.678;2024-01-15T11:13:18;375.77;;;191.80;;
80732;SDS011;70130;44.534;18.678;2024-01-15T11:16:05;356.07;;;186.33;;
80732;SDS011;70130;44.534;18.678;2024-01-15T11:18:35;345.00;;;173.97;;
80732;SDS011;70130;44.534;18.678;2024-01-15T11:23:43;345.85;;;175.68;;
80732;SDS011;70130;44.534;18.678;2024-01-15T11:29:05;287.40;;;142.73;;
80732;SDS011;70130;44.534;18.678;2024-01-15T11:34:05;261.43;;;125.60;;
80732;SDS011;70130;44.534;18.678;2024-01-15T11:37:16;240.93;;;119.97;;
80732;SDS011;70130;44.534;18.678;2024-01-15T11:41:52;257.33;;;130.77;;
80732;SDS011;70130;44.534;18.678;2024-01-15T11:44:21;261.77;;;135.80;;
80732;SDS011;70130;44.534;18.678;2024-01-15T11:47:00;287.70;;;148.37;;
80732;SDS011;70130;44.534;18.678;2024-01-15T11:52:17;322.37;;;164.23;;
80732;SDS011;70130;44.534;18.678;2024-01-15T11:54:49;289.70;;;145.37;;
80732;SDS011;70130;44.534;18.678;2024-01-15T11:57:22;252.07;;;124.80;;
80732;SDS011;70130;44.534;18.678;2024-01-15T11:59:54;211.67;;;108.07;;
80732;SDS011;70130;44.534;18.678;2024-01-15T12:02:19;234.87;;;117.20;;
80732;SDS011;70130;44.534;18.678;2024-01-15T12:04:45;226.37;;;117.10;;
80732;SDS011;70130;44.534;18.678;2024-01-15T12:07:11;248.90;;;127.13;;
80732;SDS011;70130;44.534;18.678;2024-01-15T12:09:41;243.10;;;126.43;;
80732;SDS011;70130;44.534;18.678;2024-01-15T12:12:08;274.23;;;139.97;;
80732;SDS011;70130;44.534;18.678;2024-01-15T12:14:40;259.20;;;134.23;;
80732;SDS011;70130;44.534;18.678;2024-01-15T12:17:06;246.70;;;129.73;;
80732;SDS011;70130;44.534;18.678;2024-01-15T12:19:32;250.70;;;129.30;;
80732;SDS011;70130;44.534;18.678;2024-01-15T12:21:57;248.17;;;125.97;;
80732;SDS011;70130;44.534;18.678;2024-01-15T12:24:23;249.93;;;129.40;;
80732;SDS011;70130;44.534;18.678;2024-01-15T12:26:48;245.40;;;128.47;;
80732;SDS011;70130;44.534;18.678;2024-01-15T12:29:14;323.23;;;159.77;;
80732;SDS011;70130;44.534;18.678;2024-01-15T12:31:43;331.93;;;165.07;;
80732;SDS011;70130;44.534;18.678;2024-01-15T12:34:11;362.10;;;180.67;;
80732;SDS011;70130;44.534;18.678;2024-01-15T12:36:37;330.13;;;171.83;;
80732;SDS011;70130;44.534;18.678;2024-01-15T12:39:02;344.10;;;181.03;;
80732;SDS011;70130;44.534;18.678;2024-01-15T12:41:28;313.90;;;163.27;;
80732;SDS011;70130;44.534;18.678;2024-01-15T12:43:53;336.23;;;174.57;;
80732;SDS011;70130;44.534;18.678;2024-01-15T12:46:19;314.33;;;164.77;;
80732;SDS011;70130;44.534;18.678;2024-01-15T12:48:45;315.17;;;166.17;;
80732;SDS011;70130;44.534;18.678;2024-01-15T12:51:10;322.20;;;162.43;;
80732;SDS011;70130;44.534;18.678;2024-01-15T12:53:36;304.73;;;159.03;;
80732;SDS011;70130;44.534;18.678;2024-01-15T12:56:01;301.90;;;150.00;;
80732;SDS011;70130;44.534;18.678;2024-01-15T12:58:27;285.53;;;153.30;;
80732;SDS011;70130;44.534;18.678;2024-01-15T13:00:53;311.83;;;157.60;;
80732;SDS011;70130;44.534;18.678;2024-01-15T13:03:20;301.20;;;158.97;;
80732;SDS011;70130;44.534;18.678;2024-01-15T13:05:48;300.73;;;156.13;;
80732;SDS011;70130;44.534;18.678;2024-01-15T13:08:14;293.43;;;157.90;;
80732;SDS011;70130;44.534;18.678;2024-01-15T13:10:40;304.23;;;153.50;;
80732;SDS011;70130;44.534;18.678;2024-01-15T13:13:07;306.97;;;160.70;;
80732;SDS011;70130;44.534;18.678;2024-01-15T13:15:34;320.17;;;163.53;;
80732;SDS011;70130;44.534;18.678;2024-01-15T13:18:00;325.77;;;162.07;;
80732;SDS011;70130;44.534;18.678;2024-01-15T13:20:25;354.47;;;185.07;;
80732;SDS011;70130;44.534;18.678;2024-01-15T13:22:51;369.00;;;198.00;;
80732;SDS011;70130;44.534;18.678;2024-01-15T13:25:17;402.43;;;214.00;;
80732;SDS011;70130;44.534;18.678;2024-01-15T13:27:42;372.00;;;209.43;;
80732;SDS011;70130;44.534;18.678;2024-01-15T13:30:08;402.60;;;218.40;;
80732;SDS011;70130;44.534;18.678;2024-01-15T13:32:36;392.33;;;214.77;;
80732;SDS011;70130;44.534;18.678;2024-01-15T13:35:01;405.03;;;215.23;;
80732;SDS011;70130;44.534;18.678;2024-01-15T13:37:30;385.93;;;208.10;;
80732;SDS011;70130;44.534;18.678;2024-01-15T13:39:56;402.37;;;216.60;;
80732;SDS011;70130;44.534;18.678;2024-01-15T13:42:21;393.47;;;209.57;;
80732;SDS011;70130;44.534;18.678;2024-01-15T13:44:47;377.87;;;200.33;;
80732;SDS011;70130;44.534;18.678;2024-01-15T13:47:13;360.07;;;191.47;;
80732;SDS011;70130;44.534;18.678;2024-01-15T13:49:39;345.00;;;185.40;;
80732;SDS011;70130;44.534;18.678;2024-01-15T13:52:04;327.83;;;172.57;;
80732;SDS011;70130;44.534;18.678;2024-01-15T13:54:30;365.77;;;187.23;;
80732;SDS011;70130;44.534;18.678;2024-01-15T13:56:56;353.73;;;173.30;;
80732;SDS011;70130;44.534;18.678;2024-01-15T13:59:21;349.20;;;183.50;;
80732;SDS011;70130;44.534;18.678;2024-01-15T14:01:48;339.17;;;172.63;;
80732;SDS011;70130;44.534;18.678;2024-01-15T14:04:13;313.13;;;165.90;;
80732;SDS011;70130;44.534;18.678;2024-01-15T14:06:39;300.17;;;152.83;;
80732;SDS011;70130;44.534;18.678;2024-01-15T14:09:05;304.27;;;156.23;;
80732;SDS011;70130;44.534;18.678;2024-01-15T14:11:30;298.07;;;155.53;;
80732;SDS011;70130;44.534;18.678;2024-01-15T14:13:56;298.40;;;151.03;;
80732;SDS011;70130;44.534;18.678;2024-01-15T14:16:22;301.27;;;155.47;;
80732;SDS011;70130;44.534;18.678;2024-01-15T14:18:49;304.43;;;156.17;;
80732;SDS011;70130;44.534;18.678;2024-01-15T14:21:14;334.47;;;167.30;;
80732;SDS011;70130;44.534;18.678;2024-01-15T14:23:40;333.00;;;170.57;;
80732;SDS011;70130;44.534;18.678;2024-01-15T14:26:06;315.50;;;164.93;;
80732;SDS011;70130;44.534;18.678;2024-01-15T14:28:31;341.27;;;171.20;;
80732;SDS011;70130;44.534;18.678;2024-01-15T14:30:57;326.30;;;163.97;;
80732;SDS011;70130;44.534;18.678;2024-01-15T14:33:26;318.70;;;160.07;;